Time;durP1;ratioP1;P1;durP2;ratioP2;P2;SDS_P1;SDS_P2;PMS_P1;PMS_P2;Temp;Humidity;BMP_temperature;BMP_pressure;BME280_temperature;BME280_humidity;BME280_pressure;Samples;Min_cycle;Max_cycle;Signal;HPM_P1;HPM_P2
2023/07/20 00:01:31;;;;;;;3.80;3.10;;;18.10;81.70;;;;;;5088551;28;20408;-68
2023/07/20 00:03:58;;;;;;;4.75;3.30;;;18.10;81.70;;;;;;5088357;28;20418;-67
2023/07/20 00:06:27;;;;;;;3.80;3.20;;;18.10;81.80;;;;;;5085791;28;20444;-67
2023/07/20 00:08:54;;;;;;;4.07;2.83;;;18.00;81.90;;;;;;5085556;28;20776;-67
2023/07/20 00:11:26;;;;;;;4.53;3.10;;;18.10;82.00;;;;;;5088615;28;20509;-68
2023/07/20 00:13:52;;;;;;;4.05;3.35;;;18.10;81.80;;;;;;5088473;28;20406;-67
2023/07/20 00:16:19;;;;;;;4.13;3.00;;;18.00;81.90;;;;;;5088174;28;20486;-67
2023/07/20 00:18:46;;;;;;;5.40;3.30;;;18.00;82.10;;;;;;5086838;28;20436;-67
2023/07/20 00:21:13;;;;;;;4.43;2.90;;;18.00;82.10;;;;;;5079861;28;20481;-68
2023/07/20 00:23:39;;;;;;;4.75;3.15;;;18.10;82.00;;;;;;5084150;28;20604;-68
2023/07/20 00:26:06;;;;;;;3.65;3.00;;;18.10;82.00;;;;;;5088177;28;20421;-67
2023/07/20 00:28:34;;;;;;;3.88;3.00;;;18.10;81.80;;;;;;5088603;28;21001;-66
2023/07/20 00:31:01;;;;;;;4.85;3.20;;;18.10;82.00;;;;;;5092321;28;20449;-66
2023/07/20 00:33:27;;;;;;;3.38;2.80;;;18.10;82.30;;;;;;5089265;28;20746;-68
2023/07/20 00:35:54;;;;;;;3.20;2.90;;;18.10;82.20;;;;;;5089845;28;20432;-66
2023/07/20 00:38:21;;;;;;;3.93;3.07;;;18.10;82.30;;;;;;5089710;28;20437;-67
2023/07/20 00:40:49;;;;;;;4.13;3.30;;;18.10;82.10;;;;;;5091823;28;20468;-68
2023/07/20 00:43:16;;;;;;;5.97;3.40;;;18.20;82.30;;;;;;5091950;28;20518;-66
2023/07/20 00:45:45;;;;;;;5.05;3.55;;;18.20;82.80;;;;;;5091771;28;20463;-66
2023/07/20 00:48:12;;;;;;;4.35;3.30;;;18.10;83.20;;;;;;5090493;28;20487;-66
2023/07/20 00:50:41;;;;;;;6.10;3.60;;;18.10;83.60;;;;;;5091410;28;20497;-68
2023/07/20 00:53:08;;;;;;;5.57;3.70;;;18.10;84.00;;;;;;5086705;28;20426;-68
2023/07/20 00:55:35;;;;;;;5.33;3.70;;;18.00;84.50;;;;;;5091313;28;20535;-66
2023/07/20 00:58:02;;;;;;;4.97;3.88;;;18.00;85.20;;;;;;5091552;28;20414;-65
2023/07/20 01:00:29;;;;;;;4.65;3.70;;;18.00;85.70;;;;;;5091124;28;20471;-68
2023/07/20 01:02:57;;;;;;;6.37;3.37;;;18.00;85.90;;;;;;5091552;28;20414;-68
2023/07/20 01:05:34;;;;;;;4.95;3.45;;;18.00;86.40;;;;;;5090175;28;20458;-68
2023/07/20 01:08:04;;;;;;;5.55;3.78;;;17.90;87.30;;;;;;5086177;28;20430;-68
2023/07/20 01:10:38;;;;;;;4.90;3.10;;;17.90;87.30;;;;;;5090614;28;20507;-68
2023/07/20 01:13:07;;;;;;;3.83;3.42;;;17.90;88.50;;;;;;5091568;28;20432;-67
2023/07/20 01:15:35;;;;;;;4.20;3.42;;;17.90;88.10;;;;;;5091502;28;20410;-68
2023/07/20 01:18:04;;;;;;;5.72;3.40;;;17.80;88.40;;;;;;5090271;28;20453;-68
2023/07/20 01:20:33;;;;;;;5.13;3.40;;;17.80;89.10;;;;;;5090312;28;20478;-67
2023/07/20 01:23:34;;;;;;;4.77;3.30;;;17.80;89.40;;;;;;5086977;28;20427;-67
2023/07/20 01:26:11;;;;;;;4.50;3.45;;;17.70;89.90;;;;;;5091167;28;20494;-67
2023/07/20 01:28:50;;;;;;;4.60;3.40;;;17.80;90.20;;;;;;5090774;28;20414;-67
2023/07/20 01:31:25;;;;;;;4.43;3.40;;;17.70;90.10;;;;;;5091451;28;20437;-67
2023/07/20 01:33:55;;;;;;;3.67;2.80;;;17.70;90.00;;;;;;5091065;28;20417;-67
2023/07/20 01:36:24;;;;;;;3.40;2.75;;;17.70;90.10;;;;;;5086185;28;20752;-67
2023/07/20 01:38:51;;;;;;;4.63;3.17;;;17.60;90.30;;;;;;5087963;28;20433;-67
2023/07/20 01:41:19;;;;;;;4.63;3.10;;;17.60;90.70;;;;;;5107182;22;20434;-71
2023/07/20 01:43:45;;;;;;;4.25;3.05;;;17.60;90.60;;;;;;5099862;28;20505;-72
2023/07/20 01:46:16;;;;;;;3.35;3.05;;;17.50;90.90;;;;;;5112411;28;20401;-72
2023/07/20 01:48:44;;;;;;;3.90;2.95;;;17.50;90.90;;;;;;5112025;28;20408;-72
2023/07/20 01:51:12;;;;;;;4.50;3.20;;;17.50;91.10;;;;;;5111808;28;20937;-70
2023/07/20 01:53:38;;;;;;;3.97;3.20;;;17.40;91.40;;;;;;5096038;28;20443;-71
2023/07/20 01:56:05;;;;;;;5.32;3.00;;;17.40;91.80;;;;;;5101638;28;20413;-71
2023/07/20 01:58:32;;;;;;;4.03;3.10;;;17.40;92.20;;;;;;5111418;28;20506;-71
2023/07/20 02:00:58;;;;;;;4.50;3.30;;;17.30;92.50;;;;;;5111340;28;20408;-72
2023/07/20 02:03:26;;;;;;;4.07;3.17;;;17.20;92.70;;;;;;5111919;28;20427;-72
2023/07/20 02:05:54;;;;;;;3.95;3.17;;;17.20;93.00;;;;;;5111663;28;20420;-72
2023/07/20 02:08:21;;;;;;;4.13;3.20;;;17.30;93.10;;;;;;5098494;28;20437;-72
2023/07/20 02:10:48;;;;;;;3.80;3.20;;;17.20;93.20;;;;;;5102724;28;20841;-72
2023/07/20 02:13:15;;;;;;;4.30;3.40;;;17.20;93.30;;;;;;5111411;28;20403;-72
2023/07/20 02:15:42;;;;;;;5.50;3.35;;;17.20;93.40;;;;;;5111203;28;20416;-72
2023/07/20 02:18:09;;;;;;;3.83;3.45;;;17.10;93.60;;;;;;5111116;28;20470;-72
2023/07/20 02:20:36;;;;;;;4.00;3.65;;;17.10;93.90;;;;;;5110737;28;20408;-72
2023/07/20 02:23:04;;;;;;;4.30;3.60;;;17.00;94.10;;;;;;5102872;28;20428;-72
2023/07/20 02:25:31;;;;;;;4.40;3.40;;;17.00;94.50;;;;;;5102653;28;20446;-71
2023/07/20 02:27:58;;;;;;;4.20;3.60;;;17.00;94.50;;;;;;5110996;28;20443;-72
2023/07/20 02:30:25;;;;;;;4.53;3.80;;;16.90;94.70;;;;;;5110561;28;20416;-71
2023/07/20 02:32:51;;;;;;;4.85;3.72;;;16.90;94.70;;;;;;5110679;28;20421;-72
2023/07/20 02:35:18;;;;;;;5.10;3.95;;;16.90;94.90;;;;;;5111008;28;20413;-72
2023/07/20 02:37:45;;;;;;;5.43;3.90;;;16.90;94.90;;;;;;5100412;28;20906;-72
2023/07/20 02:40:13;;;;;;;5.15;4.00;;;16.90;95.00;;;;;;5093370;28;20428;-71
2023/07/20 02:42:40;;;;;;;5.70;4.38;;;16.90;95.10;;;;;;5110950;28;20516;-72
2023/07/20 02:45:08;;;;;;;5.53;4.10;;;16.80;95.20;;;;;;5108879;28;20412;-71
2023/07/20 02:47:35;;;;;;;4.70;4.00;;;16.80;95.50;;;;;;5098605;28;20919;-72
2023/07/20 02:50:02;;;;;;;5.22;3.90;;;16.70;95.50;;;;;;5108713;28;20841;-71
2023/07/20 02:52:29;;;;;;;5.22;3.85;;;16.70;95.60;;;;;;5099596;28;20439;-72
2023/07/20 02:54:56;;;;;;;6.30;4.35;;;16.70;95.80;;;;;;5097407;28;20425;-71
2023/07/20 02:57:24;;;;;;;4.90;4.40;;;16.70;95.90;;;;;;5110399;28;20751;-71
2023/07/20 02:59:51;;;;;;;4.70;4.20;;;16.60;95.90;;;;;;5109772;28;20420;-71
2023/07/20 03:02:17;;;;;;;5.82;4.40;;;16.60;96.20;;;;;;5110254;28;20412;-71
2023/07/20 03:04:44;;;;;;;5.68;3.78;;;16.50;96.20;;;;;;5110390;28;20408;-72
2023/07/20 03:07:11;;;;;;;4.97;3.70;;;16.50;96.30;;;;;;5100399;28;20428;-73
2023/07/20 03:09:38;;;;;;;5.10;3.65;;;16.50;96.20;;;;;;5101362;28;20427;-72
2023/07/20 03:12:05;;;;;;;5.28;3.60;;;16.50;96.30;;;;;;5110125;28;20443;-72
2023/07/20 03:14:33;;;;;;;4.97;3.72;;;16.40;96.30;;;;;;5110299;28;20420;-71
2023/07/20 03:17:00;;;;;;;6.18;4.10;;;16.40;96.50;;;;;;5110207;28;20443;-70
2023/07/20 03:19:28;;;;;;;4.57;3.80;;;16.40;96.50;;;;;;5110144;28;20419;-70
2023/07/20 03:21:54;;;;;;;4.68;3.60;;;16.40;96.40;;;;;;5104926;28;20422;-70
2023/07/20 03:24:23;;;;;;;4.90;3.85;;;16.40;96.40;;;;;;5092322;28;20440;-72
2023/07/20 03:26:50;;;;;;;4.30;3.30;;;16.30;96.50;;;;;;5107169;28;20939;-71
2023/07/20 03:29:17;;;;;;;4.90;3.70;;;16.40;96.60;;;;;;5109623;28;20782;-71
2023/07/20 03:31:45;;;;;;;4.97;3.63;;;16.30;96.60;;;;;;5110092;28;20428;-71
2023/07/20 03:34:11;;;;;;;4.57;3.73;;;16.30;96.50;;;;;;5109848;28;20740;-71
2023/07/20 03:36:38;;;;;;;4.57;3.00;;;16.30;96.60;;;;;;5095667;28;20798;-71
2023/07/20 03:39:05;;;;;;;4.15;3.70;;;16.30;96.50;;;;;;5098442;28;20523;-71
2023/07/20 03:41:31;;;;;;;4.85;3.50;;;16.30;96.60;;;;;;5109666;28;20431;-71
2023/07/20 03:43:58;;;;;;;4.15;3.50;;;16.40;96.40;;;;;;5109782;28;20408;-71
2023/07/20 03:46:25;;;;;;;4.10;3.70;;;16.40;96.40;;;;;;5109095;28;20416;-70
2023/07/20 03:48:53;;;;;;;4.45;3.30;;;16.40;96.20;;;;;;5109298;28;20408;-71
2023/07/20 03:51:20;;;;;;;5.00;3.47;;;16.40;96.10;;;;;;5104614;28;20426;-71
2023/07/20 03:53:46;;;;;;;4.75;3.50;;;16.40;96.10;;;;;;5095247;28;20440;-71
2023/07/20 03:56:13;;;;;;;6.22;3.45;;;16.50;95.80;;;;;;5097694;28;20425;-71
2023/07/20 03:58:40;;;;;;;4.70;3.42;;;16.50;95.60;;;;;;5088939;28;20811;-72
2023/07/20 04:01:08;;;;;;;4.53;3.33;;;16.50;95.50;;;;;;5089183;28;20413;-71
2023/07/20 04:03:35;;;;;;;4.53;3.45;;;16.50;95.40;;;;;;5089816;28;20413;-71
2023/07/20 04:06:03;;;;;;;4.57;3.30;;;16.50;95.50;;;;;;5091793;28;20569;-71
2023/07/20 04:08:30;;;;;;;5.45;3.20;;;16.50;95.20;;;;;;5104858;28;20415;-71
2023/07/20 04:10:57;;;;;;;4.00;3.50;;;16.50;95.20;;;;;;5113536;28;20779;-72
2023/07/20 04:13:23;;;;;;;4.10;3.10;;;16.50;95.20;;;;;;5113289;28;20408;-71
2023/07/20 04:15:50;;;;;;;4.57;3.20;;;16.50;95.20;;;;;;5113674;28;20434;-72
2023/07/20 04:18:17;;;;;;;4.03;3.28;;;16.60;95.20;;;;;;5114182;28;20412;-72
2023/07/20 04:20:44;;;;;;;5.17;3.40;;;16.60;95.00;;;;;;5103822;28;20432;-72
2023/07/20 04:23:12;;;;;;;4.90;3.00;;;16.60;94.90;;;;;;5105824;28;20778;-72
2023/07/20 04:25:40;;;;;;;4.43;3.30;;;16.70;94.80;;;;;;5114644;28;20412;-71
2023/07/20 04:28:09;;;;;;;7.55;3.45;;;16.70;94.60;;;;;;5113398;28;20427;-71
2023/07/20 04:30:37;;;;;;;5.15;3.65;;;16.70;94.60;;;;;;5113182;28;20412;-71
2023/07/20 04:33:04;;;;;;;5.40;3.42;;;16.70;94.50;;;;;;5113580;28;20435;-71
2023/07/20 04:35:47;;;;;;;6.85;3.40;;;16.70;94.40;;;;;;5097153;28;20435;-71
2023/07/20 04:38:17;;;;;;;5.88;3.88;;;16.70;94.40;;;;;;5092886;28;20493;-71
2023/07/20 04:40:44;;;;;;;6.45;3.50;;;16.70;94.40;;;;;;5092775;28;20414;-71
2023/07/20 04:43:11;;;;;;;5.93;3.40;;;16.70;94.40;;;;;;5093068;28;20405;-72
2023/07/20 04:45:38;;;;;;;6.03;3.35;;;16.80;94.40;;;;;;5092751;28;20421;-71
2023/07/20 04:48:07;;;;;;;4.68;3.28;;;16.80;94.40;;;;;;5092607;28;20424;-72
2023/07/20 04:50:34;;;;;;;5.35;3.60;;;16.90;94.00;;;;;;5091166;28;20989;-72
2023/07/20 04:53:02;;;;;;;3.95;3.33;;;16.90;94.00;;;;;;5104703;28;20416;-71
2023/07/20 04:55:30;;;;;;;6.22;3.80;;;16.90;93.90;;;;;;5112878;28;20459;-71
2023/07/20 04:57:57;;;;;;;7.00;3.65;;;16.90;93.80;;;;;;5112856;28;20416;-73
2023/07/20 05:00:24;;;;;;;4.70;3.65;;;16.90;93.80;;;;;;5111611;28;20828;-72
2023/07/20 05:02:51;;;;;;;5.82;4.47;;;17.00;93.80;;;;;;5097159;28;20422;-72
2023/07/20 05:05:17;;;;;;;5.47;3.67;;;17.00;93.70;;;;;;5102213;28;20737;-72
2023/07/20 05:07:44;;;;;;;6.82;4.15;;;17.00;93.70;;;;;;5103925;28;20412;-72
2023/07/20 05:10:12;;;;;;;5.15;3.97;;;17.00;93.60;;;;;;5112083;28;20419;-71
2023/07/20 05:12:40;;;;;;;5.10;3.92;;;17.00;93.60;;;;;;5112562;28;20925;-71
2023/07/20 05:15:07;;;;;;;5.40;3.90;;;17.00;93.70;;;;;;5106251;28;20790;-71
2023/07/20 05:17:34;;;;;;;5.43;4.35;;;17.10;93.60;;;;;;5097159;28;20543;-71
2023/07/20 05:20:01;;;;;;;4.90;4.35;;;17.10;93.50;;;;;;5097488;28;20432;-71
2023/07/20 05:22:27;;;;;;;6.40;4.43;;;17.10;93.70;;;;;;5103803;28;20404;-71
2023/07/20 05:24:54;;;;;;;6.85;4.25;;;17.10;93.80;;;;;;5112394;28;20499;-71
2023/07/20 05:27:21;;;;;;;5.03;3.92;;;17.10;93.40;;;;;;5112601;28;20904;-71
2023/07/20 05:29:49;;;;;;;6.82;4.07;;;17.10;93.50;;;;;;5105179;28;20775;-71
2023/07/20 05:32:16;;;;;;;6.25;4.40;;;17.10;93.60;;;;;;5092037;28;20514;-73
2023/07/20 05:34:43;;;;;;;6.97;5.20;;;17.20;93.70;;;;;;5088439;28;20435;-71
2023/07/20 05:37:09;;;;;;;7.60;5.20;;;17.30;93.30;;;;;;5102269;28;20417;-72
2023/07/20 05:39:36;;;;;;;6.18;4.88;;;17.30;93.00;;;;;;5111475;28;20417;-71
2023/07/20 05:42:03;;;;;;;5.85;5.25;;;17.40;93.00;;;;;;5112037;28;20423;-71
2023/07/20 05:44:30;;;;;;;5.93;5.32;;;17.40;92.80;;;;;;5106211;28;20428;-71
2023/07/20 05:46:58;;;;;;;7.30;6.60;;;17.40;92.90;;;;;;5103472;28;20869;-71
2023/07/20 05:49:25;;;;;;;7.72;5.65;;;17.40;92.90;;;;;;5111303;28;20869;-71
2023/07/20 05:51:52;;;;;;;7.45;6.70;;;17.30;93.00;;;;;;5098257;28;20437;-71
2023/07/20 05:54:19;;;;;;;6.60;5.90;;;17.30;93.20;;;;;;5093397;28;20433;-71
2023/07/20 05:56:46;;;;;;;7.00;5.83;;;17.30;93.20;;;;;;5091535;28;20418;-70
2023/07/20 05:59:13;;;;;;;9.57;6.00;;;17.30;93.10;;;;;;5085725;28;20432;-71
2023/07/20 06:01:40;;;;;;;10.73;7.57;;;17.40;93.30;;;;;;5102813;28;20407;-71
2023/07/20 06:04:08;;;;;;;8.88;8.00;;;17.50;92.90;;;;;;5111633;28;20427;-71
2023/07/20 06:06:35;;;;;;;9.75;8.38;;;17.60;92.80;;;;;;5093850;28;20524;-72
2023/07/20 06:09:03;;;;;;;8.90;8.10;;;17.60;92.40;;;;;;5102800;28;20430;-71
2023/07/20 06:11:30;;;;;;;8.45;7.65;;;17.50;92.30;;;;;;5111605;28;20428;-71
2023/07/20 06:13:57;;;;;;;9.10;8.20;;;17.50;92.70;;;;;;5100643;28;20432;-71
2023/07/20 06:16:24;;;;;;;8.73;7.90;;;17.50;92.60;;;;;;5104119;28;20419;-71
2023/07/20 06:18:50;;;;;;;11.77;9.00;;;17.60;92.40;;;;;;5110864;28;20755;-71
2023/07/20 06:21:19;;;;;;;8.77;8.02;;;17.60;92.00;;;;;;5098922;28;20485;-71
2023/07/20 06:23:46;;;;;;;10.00;9.00;;;17.60;92.00;;;;;;5100679;27;20424;-70
2023/07/20 06:26:12;;;;;;;11.43;10.38;;;17.60;92.00;;;;;;5102746;28;20420;-71
2023/07/20 06:28:39;;;;;;;9.98;8.98;;;17.60;92.20;;;;;;5110578;28;20416;-71
2023/07/20 06:31:06;;;;;;;9.73;8.82;;;17.60;92.20;;;;;;5110834;28;20415;-71
2023/07/20 06:33:34;;;;;;;9.43;8.52;;;17.70;92.00;;;;;;5110988;28;20439;-71
2023/07/20 06:36:01;;;;;;;10.18;9.38;;;17.80;91.50;;;;;;5101641;28;20432;-71
2023/07/20 06:38:29;;;;;;;11.95;9.20;;;17.90;90.70;;;;;;5102158;28;20499;-70
2023/07/20 06:40:56;;;;;;;10.30;9.38;;;17.80;90.80;;;;;;5110623;28;20491;-71
2023/07/20 06:43:22;;;;;;;10.20;9.20;;;17.80;90.80;;;;;;5110770;28;20751;-71
2023/07/20 06:45:53;;;;;;;9.50;8.50;;;17.80;91.10;;;;;;5110860;28;20431;-70
2023/07/20 06:48:20;;;;;;;10.40;9.40;;;17.70;91.10;;;;;;5110358;28;20412;-72
2023/07/20 06:50:46;;;;;;;11.00;10.10;;;17.70;91.20;;;;;;5106919;28;20427;-71
2023/07/20 06:53:13;;;;;;;10.80;9.90;;;17.80;91.20;;;;;;5102139;28;20431;-72
2023/07/20 06:55:43;;;;;;;9.50;8.50;;;17.90;90.80;;;;;;5110670;28;20416;-72
2023/07/20 06:58:09;;;;;;;9.52;8.52;;;18.00;90.60;;;;;;5093165;28;20429;-71
2023/07/20 07:00:36;;;;;;;9.15;8.25;;;18.20;90.20;;;;;;5098787;28;20896;-71
2023/07/20 07:03:03;;;;;;;9.00;8.20;;;18.30;90.10;;;;;;5108873;28;20503;-70
2023/07/20 07:05:30;;;;;;;9.98;7.13;;;18.40;89.10;;;;;;5092936;28;20454;-71
2023/07/20 07:07:57;;;;;;;8.32;7.53;;;18.40;88.60;;;;;;5101704;28;20447;-70
2023/07/20 07:10:24;;;;;;;8.55;7.65;;;18.40;88.60;;;;;;5109891;28;20513;-71
2023/07/20 07:12:52;;;;;;;8.63;7.70;;;18.40;88.30;;;;;;5110288;28;20512;-72
2023/07/20 07:15:19;;;;;;;7.53;6.75;;;18.40;88.50;;;;;;5109925;28;20894;-72
2023/07/20 07:17:45;;;;;;;7.90;7.20;;;18.40;88.80;;;;;;5110018;28;20417;-72
2023/07/20 07:20:12;;;;;;;8.00;7.30;;;18.50;86.70;;;;;;5087333;28;20796;-71
2023/07/20 07:22:39;;;;;;;7.57;6.88;;;18.50;86.50;;;;;;5092843;28;20410;-71
2023/07/20 07:25:07;;;;;;;8.80;7.30;;;18.60;86.10;;;;;;5099696;28;20430;-71
2023/07/20 07:27:34;;;;;;;7.60;6.70;;;18.60;85.30;;;;;;5103952;28;20942;-72
2023/07/20 07:30:02;;;;;;;7.70;6.90;;;18.70;85.40;;;;;;5109133;28;20404;-71
2023/07/20 07:32:29;;;;;;;7.93;7.13;;;18.70;85.40;;;;;;5101740;28;20438;-72
2023/07/20 07:34:58;;;;;;;7.40;6.70;;;18.70;84.50;;;;;;5095860;28;20418;-71
2023/07/20 07:37:25;;;;;;;7.40;6.70;;;18.70;85.00;;;;;;5097527;28;20427;-72
2023/07/20 07:39:51;;;;;;;7.55;6.00;;;18.90;85.00;;;;;;5093142;28;20418;-72
2023/07/20 07:42:18;;;;;;;7.28;6.57;;;19.00;85.00;;;;;;5113835;22;20541;-67
2023/07/20 07:44:45;;;;;;;7.45;6.85;;;19.00;83.40;;;;;;5088389;28;20781;-67
2023/07/20 07:47:14;;;;;;;6.30;5.80;;;19.10;83.10;;;;;;5088786;28;20410;-67
2023/07/20 07:49:41;;;;;;;7.53;6.60;;;19.10;83.80;;;;;;5084838;28;20804;-68
2023/07/20 07:52:08;;;;;;;7.95;7.25;;;19.30;81.70;;;;;;5088513;28;20429;-68
2023/07/20 07:54:34;;;;;;;7.13;6.50;;;19.40;81.70;;;;;;5088854;28;20410;-67
2023/07/20 07:57:01;;;;;;;8.05;6.80;;;19.40;80.70;;;;;;5088567;28;20406;-67
2023/07/20 07:59:28;;;;;;;8.60;6.30;;;19.40;80.70;;;;;;5088277;28;20523;-68
2023/07/20 08:01:55;;;;;;;6.10;5.60;;;19.50;79.10;;;;;;5086874;28;20410;-67
2023/07/20 08:04:23;;;;;;;7.97;6.53;;;19.70;78.80;;;;;;5080816;28;20897;-67
2023/07/20 08:06:50;;;;;;;10.77;8.18;;;19.80;77.70;;;;;;5088691;28;20422;-67
2023/07/20 08:09:16;;;;;;;7.10;5.93;;;19.90;77.10;;;;;;5088413;28;20418;-66
2023/07/20 08:11:43;;;;;;;5.20;4.70;;;19.90;76.00;;;;;;5088559;28;20418;-67
2023/07/20 08:14:10;;;;;;;5.83;5.33;;;19.80;76.70;;;;;;5088784;28;20410;-67
2023/07/20 08:16:36;;;;;;;5.32;4.80;;;19.80;76.00;;;;;;5084684;28;20431;-66
2023/07/20 08:19:03;;;;;;;5.70;5.20;;;19.80;75.90;;;;;;5085983;28;20888;-67
2023/07/20 08:21:31;;;;;;;5.63;5.13;;;19.70;76.00;;;;;;5088722;28;20416;-67
2023/07/20 08:23:58;;;;;;;5.60;5.10;;;19.70;76.30;;;;;;5088456;28;20926;-67
2023/07/20 08:26:25;;;;;;;4.88;4.20;;;19.70;76.10;;;;;;5087754;28;20426;-66
2023/07/20 08:28:52;;;;;;;4.45;4.05;;;19.90;76.20;;;;;;5088131;28;20471;-67
2023/07/20 08:31:19;;;;;;;4.90;4.10;;;20.20;74.60;;;;;;5085537;28;20436;-67
2023/07/20 08:33:46;;;;;;;3.90;3.50;;;20.50;73.60;;;;;;5087684;28;20417;-67
2023/07/20 08:36:12;;;;;;;4.55;3.65;;;20.80;70.20;;;;;;5088366;28;20884;-68
2023/07/20 08:38:40;;;;;;;4.33;3.80;;;21.00;66.90;;;;;;5087987;28;20494;-67
2023/07/20 08:41:07;;;;;;;4.50;4.10;;;21.30;67.00;;;;;;5088377;28;20418;-68
2023/07/20 08:43:34;;;;;;;3.70;3.40;;;21.60;65.20;;;;;;5088534;28;20768;-67
2023/07/20 08:46:02;;;;;;;3.20;2.90;;;21.90;64.60;;;;;;5080315;28;20834;-67
2023/07/20 08:48:31;;;;;;;3.42;2.72;;;22.20;64.00;;;;;;5088040;28;20421;-67
2023/07/20 08:51:00;;;;;;;3.42;2.80;;;22.50;61.50;;;;;;5089102;28;20431;-68
2023/07/20 08:53:28;;;;;;;5.03;2.80;;;22.60;59.80;;;;;;5087619;28;20485;-68
2023/07/20 08:55:56;;;;;;;3.20;2.90;;;22.70;59.60;;;;;;5079425;28;20438;-68
2023/07/20 08:58:26;;;;;;;3.30;3.00;;;23.10;58.10;;;;;;5088666;28;20430;-68
2023/07/20 09:00:54;;;;;;;3.50;3.17;;;23.20;55.40;;;;;;5085316;28;20427;-68
2023/07/20 09:03:21;;;;;;;3.50;3.20;;;23.20;56.20;;;;;;5083939;28;20911;-67
2023/07/20 09:05:47;;;;;;;3.78;3.20;;;23.10;56.20;;;;;;5092274;28;20409;-68
2023/07/20 09:08:14;;;;;;;3.33;2.83;;;23.10;55.80;;;;;;5091653;28;20414;-68
2023/07/20 09:10:41;;;;;;;3.40;2.60;;;23.20;52.70;;;;;;5091519;28;20417;-68
2023/07/20 09:13:09;;;;;;;3.00;2.80;;;23.30;51.50;;;;;;5084850;28;20495;-68
2023/07/20 09:15:36;;;;;;;3.75;2.90;;;23.40;51.30;;;;;;5089146;28;20413;-68
2023/07/20 09:18:03;;;;;;;3.30;3.00;;;23.60;50.70;;;;;;5089218;28;20410;-68
2023/07/20 09:20:32;;;;;;;3.15;2.90;;;23.60;50.80;;;;;;5091412;28;20414;-68
2023/07/20 09:22:59;;;;;;;3.25;3.05;;;23.50;50.00;;;;;;5091612;28;20871;-68
2023/07/20 09:25:28;;;;;;;3.53;2.97;;;23.60;51.10;;;;;;5091618;28;20421;-67
2023/07/20 09:27:55;;;;;;;2.60;2.30;;;23.70;51.90;;;;;;5090668;28;20460;-68
2023/07/20 09:30:26;;;;;;;3.67;3.38;;;23.80;49.30;;;;;;5091372;28;20452;-67
2023/07/20 09:32:53;;;;;;;3.45;3.15;;;23.60;49.50;;;;;;5088246;28;20430;-68
2023/07/20 09:35:22;;;;;;;3.50;3.30;;;23.50;50.50;;;;;;5071080;28;20454;-68
2023/07/20 09:37:52;;;;;;;3.85;3.38;;;23.50;51.00;;;;;;5070909;28;20416;-68
2023/07/20 09:40:19;;;;;;;4.13;3.50;;;23.50;50.60;;;;;;5070815;28;20420;-67
2023/07/20 09:42:46;;;;;;;2.80;1.90;;;23.50;49.90;;;;;;5086068;28;20429;-68
2023/07/20 09:45:13;;;;;;;3.13;2.00;;;23.50;48.70;;;;;;5091148;28;20463;-68
2023/07/20 09:47:42;;;;;;;4.35;2.20;;;23.50;50.00;;;;;;5086125;28;20430;-68
2023/07/20 09:50:10;;;;;;;2.55;1.77;;;23.30;51.20;;;;;;5081883;28;20427;-68
2023/07/20 09:52:40;;;;;;;2.40;1.80;;;23.20;51.70;;;;;;5090726;28;20437;-69
2023/07/20 09:55:08;;;;;;;1.70;1.60;;;23.10;51.60;;;;;;5090921;28;20418;-68
2023/07/20 09:57:36;;;;;;;3.30;1.88;;;23.00;52.00;;;;;;5090898;28;20421;-68
2023/07/20 10:00:07;;;;;;;2.78;1.70;;;23.10;51.80;;;;;;5090560;28;20410;-68
2023/07/20 10:02:37;;;;;;;3.00;1.80;;;23.20;50.90;;;;;;5082731;28;20980;-67
2023/07/20 10:05:08;;;;;;;2.05;1.60;;;23.30;51.00;;;;;;5090666;28;20919;-67
2023/07/20 10:07:37;;;;;;;2.03;1.83;;;23.50;49.60;;;;;;5090748;28;20418;-68
2023/07/20 10:10:05;;;;;;;2.63;2.00;;;23.80;47.70;;;;;;5090197;28;20446;-68
2023/07/20 10:12:33;;;;;;;2.60;1.70;;;24.00;47.10;;;;;;5090509;28;20501;-70
2023/07/20 10:15:10;;;;;;;2.45;1.70;;;24.20;46.00;;;;;;5082769;28;20433;-69
2023/07/20 10:17:41;;;;;;;2.10;1.30;;;24.60;46.00;;;;;;5084514;28;20433;-67
2023/07/20 10:20:11;;;;;;;2.40;1.30;;;25.10;44.80;;;;;;5090321;28;20414;-70
2023/07/20 10:22:39;;;;;;;2.13;1.27;;;25.30;41.40;;;;;;5090958;28;20872;-69
2023/07/20 10:25:06;;;;;;;3.63;1.40;;;25.70;40.90;;;;;;5091994;28;20411;-69
2023/07/20 10:27:33;;;;;;;2.60;1.40;;;26.00;40.20;;;;;;5090728;28;20452;-67
2023/07/20 10:30:02;;;;;;;1.63;1.40;;;26.30;39.30;;;;;;5088639;28;20537;-67
2023/07/20 10:32:30;;;;;;;2.47;1.40;;;26.20;39.60;;;;;;5086308;28;20433;-67
2023/07/20 10:34:57;;;;;;;1.80;1.10;;;26.00;40.50;;;;;;5087724;28;20434;-68
2023/07/20 10:37:51;;;;;;;2.30;1.30;;;25.80;40.50;;;;;;5081546;28;20436;-68
2023/07/20 10:40:32;;;;;;;2.35;1.70;;;25.50;40.90;;;;;;5089200;28;20755;-68
2023/07/20 10:43:04;;;;;;;3.20;1.65;;;25.20;40.60;;;;;;5089578;28;20413;-69
2023/07/20 10:45:42;;;;;;;2.47;1.60;;;24.90;41.20;;;;;;5089876;28;20410;-69
2023/07/20 10:48:17;;;;;;;1.80;1.20;;;24.60;40.10;;;;;;5088283;28;20440;-68
2023/07/20 10:50:45;;;;;;;3.03;1.43;;;24.20;41.40;;;;;;5088939;28;20414;-69
2023/07/20 10:53:15;;;;;;;2.40;1.40;;;24.00;41.90;;;;;;5089670;28;20433;-69
2023/07/20 10:55:43;;;;;;;2.05;1.42;;;23.90;42.90;;;;;;5090158;28;20884;-69
2023/07/20 10:58:14;;;;;;;1.80;1.50;;;23.80;43.20;;;;;;5082336;28;20868;-68
2023/07/20 11:00:59;;;;;;;1.60;1.38;;;23.70;42.40;;;;;;5089311;28;20424;-68
2023/07/20 11:03:30;;;;;;;3.00;1.60;;;23.60;43.70;;;;;;5081648;28;20498;-68
2023/07/20 11:05:58;;;;;;;3.90;1.40;;;23.60;45.10;;;;;;5089437;28;20498;-69
2023/07/20 11:08:42;;;;;;;2.10;1.40;;;23.70;44.80;;;;;;5089131;28;20517;-69
2023/07/20 11:11:26;;;;;;;2.30;1.50;;;23.80;44.70;;;;;;5089412;28;20406;-69
2023/07/20 11:13:57;;;;;;;2.40;1.25;;;23.80;43.60;;;;;;5088484;28;20453;-69
2023/07/20 11:16:38;;;;;;;2.63;1.30;;;23.80;43.70;;;;;;5084115;28;20430;-68
2023/07/20 11:19:06;;;;;;;3.63;1.30;;;23.80;43.40;;;;;;5088663;28;20422;-69
2023/07/20 11:21:37;;;;;;;1.40;1.10;;;23.90;43.10;;;;;;5089076;28;20410;-69
2023/07/20 11:24:07;;;;;;;1.73;1.00;;;23.90;43.10;;;;;;5089070;28;20452;-69
2023/07/20 11:26:47;;;;;;;1.30;1.10;;;24.00;42.20;;;;;;5089302;28;20420;-68
2023/07/20 11:29:16;;;;;;;1.90;1.30;;;24.10;41.40;;;;;;5088723;28;20425;-69
2023/07/20 11:31:44;;;;;;;2.60;1.20;;;24.00;42.00;;;;;;5085610;28;20426;-69
2023/07/20 11:34:12;;;;;;;2.13;1.38;;;24.10;41.40;;;;;;5088003;28;20426;-69
2023/07/20 11:36:41;;;;;;;2.00;1.20;;;24.30;41.40;;;;;;5089121;28;20508;-69
2023/07/20 11:39:10;;;;;;;1.45;1.10;;;24.50;40.80;;;;;;5088684;28;20456;-69
2023/07/20 11:41:37;;;;;;;1.73;0.98;;;24.70;40.40;;;;;;5088941;28;20429;-68
2023/07/20 11:44:06;;;;;;;1.58;1.15;;;24.80;41.00;;;;;;5089033;28;20952;-69
2023/07/20 11:46:33;;;;;;;1.70;1.00;;;24.80;41.70;;;;;;5080757;28;20425;-69
2023/07/20 11:49:00;;;;;;;2.58;0.93;;;24.90;42.20;;;;;;5088371;28;20414;-69
2023/07/20 11:51:28;;;;;;;1.50;1.10;;;25.00;41.80;;;;;;5088729;28;20433;-69
2023/07/20 11:53:55;;;;;;;1.70;0.90;;;25.10;40.90;;;;;;5088766;28;20452;-68
2023/07/20 11:56:24;;;;;;;1.70;1.00;;;25.10;41.40;;;;;;5088805;28;20432;-69
2023/07/20 11:58:50;;;;;;;1.50;0.93;;;25.30;39.40;;;;;;5088374;28;20406;-69
2023/07/20 12:01:18;;;;;;;2.42;1.20;;;25.50;39.40;;;;;;5082747;28;20428;-69
2023/07/20 12:03:45;;;;;;;1.77;0.90;;;26.00;38.10;;;;;;5089187;28;20772;-69
2023/07/20 12:06:12;;;;;;;1.20;0.90;;;26.30;38.40;;;;;;5088999;28;20505;-69
2023/07/20 12:08:40;;;;;;;1.70;1.00;;;26.50;37.30;;;;;;5088516;28;20455;-68
2023/07/20 12:11:07;;;;;;;1.40;0.90;;;26.30;37.20;;;;;;5088872;28;20410;-69
2023/07/20 12:13:39;;;;;;;1.88;1.00;;;26.00;37.20;;;;;;5088772;28;20426;-69
2023/07/20 12:16:14;;;;;;;3.53;1.25;;;25.70;37.60;;;;;;5085721;28;20430;-68
2023/07/20 12:18:41;;;;;;;3.70;1.10;;;25.40;37.70;;;;;;5087855;28;21034;-68
2023/07/20 12:21:08;;;;;;;1.73;1.05;;;25.20;37.30;;;;;;5087469;28;20429;-68
2023/07/20 12:23:39;;;;;;;1.27;1.00;;;24.90;38.00;;;;;;5088455;28;20413;-68
2023/07/20 12:26:09;;;;;;;3.00;1.30;;;24.60;39.30;;;;;;5091445;28;20420;-68
2023/07/20 12:28:41;;;;;;;1.60;1.00;;;24.40;40.20;;;;;;5092076;28;20410;-69
2023/07/20 12:31:09;;;;;;;1.63;0.90;;;24.30;40.20;;;;;;5084612;28;21128;-68
2023/07/20 12:33:36;;;;;;;2.55;1.20;;;24.10;40.60;;;;;;5091998;28;20504;-68
2023/07/20 12:36:03;;;;;;;2.25;1.10;;;23.80;41.70;;;;;;5092353;28;20879;-68
2023/07/20 12:38:30;;;;;;;1.67;1.10;;;23.70;42.90;;;;;;5091615;28;20449;-68
2023/07/20 12:40:58;;;;;;;1.40;1.10;;;23.60;43.30;;;;;;5090771;28;20441;-68
2023/07/20 12:43:25;;;;;;;4.60;4.10;;;23.60;43.90;;;;;;5091991;28;20437;-68
2023/07/20 12:45:53;;;;;;;1.90;1.70;;;23.50;43.80;;;;;;5087171;28;20440;-68
2023/07/20 12:48:20;;;;;;;2.58;1.20;;;23.50;43.30;;;;;;5091604;28;20524;-68
2023/07/20 12:50:46;;;;;;;2.80;1.10;;;23.50;42.10;;;;;;5091761;28;20417;-68